NEODyS-2

Near Earth Objects - Dynamic Site
NEODyS ∴ Observatories ∴ Site 691 ∴ Obs & residuals
Contact »
691  ▹ 
OBSERVATIONS AND RESIDUALS

691-Steward Observatory, Kitt Peak-Spacewatch

Detections | Residuals | Detections & Residuals

[1-200] [201-400] [401-600] [601-800] [801-1000] [1001-1200] [1201-1400] [1401-1600] [1601-1800] [1801-2000] [2001-2200] [2201-2400] [2401-2600] [2601-2800] [2801-3000] [3001-3200] [3201-3400] [3401-3600] [3601-3800] [3801-4000] [4001-4200] [4201-4400] [4401-4600] [4601-4800] [4801-5000] [5001-5200] [5201-5400] [5401-5600] [5601-5800] [5801-6000] [6001-6200] [6201-6400] [6401-6600] [6601-6800] [6801-7000] [7001-7200] [7201-7400] [7401-7600] [7601-7800] [7801-8000] [8001-8200] [8201-8400] [8401-8600] [8601-8800] [8801-9000] [9001-9200] [9201-9400] [9401-9600] [9601-9800] [9801-10000] [10001-10200] [10201-10400] [10401-10600] [10601-10800] [10801-11000] [11001-11200] [11201-11400] [11401-11600] [11601-11800] [11801-12000] [12001-12200] [12201-12400] [12401-12600] [12601-12800] [12801-13000] [13001-13200] [13201-13400] [13401-13600] [13601-13800] [13801-14000] [14001-14200] [14201-14400] [14401-14600] [14601-14800] [14801-15000] [15001-15200] [15201-15400] [15401-15600] [15601-15800] [15801-16000] [16001-16200] [16201-16400] [16401-16600] [16601-16800] [16801-17000] [17001-17200] [17201-17400] [17401-17600] [17601-17800] [17801-18000] [18001-18200] [18201-18400] [18401-18600] [18601-18800] [18801-19000] [19001-19200] [19201-19400] [19401-19600] [19601-19800] [19801-20000] [20001-20200] [20201-20400] [20401-20600] [20601-20800] [20801-21000] [21001-21200] [21201-21400] [21401-21600] [21601-21800] [21801-22000] [22001-22200] [22201-22400] [22401-22600] [22601-22800] [22801-23000] [23001-23200] [23201-23400] [23401-23600] [23601-23800] [23801-24000] [24001-24200] [24201-24400] [24401-24600] [24601-24800] [24801-25000] [25001-25200] [25201-25400] [25401-25600] [25601-25800] [25801-26000] [26001-26200] [26201-26400] [26401-26600] [26601-26800] [26801-27000] [27001-27200] [27201-27400] [27401-27600] [27601-27800] [27801-28000] [28001-28200] [28201-28400] [28401-28600] [28601-28800] [28801-29000] [29001-29200] [29201-29400] [29401-29600] [29601-29800] [29801-30000] [30001-30200] [30201-30400] [30401-30600] [30601-30800] [30801-31000] [31001-31200] [31201-31400] [31401-31600] [31601-31800] [31801-32000] [32001-32200] [32201-32400] [32401-32600] [32601-32800] [32801-33000] [33001-33200] [33201-33400] [33401-33600] [33601-33800] [33801-34000] [34001-34200] [34201-34400] [34401-34600] [34601-34800] [34801-35000] [35001-35200] [35201-35400] [35401-35600] [35601-35800] [35801-36000] [36001-36200] [36201-36400] [36401-36600] [36601-36800] [36801-37000] [37001-37200] [37201-37400] [37401-37600] [37601-37800] [37801-38000] [38001-38200] [38201-38400] [38401-38600] [38601-38800] [38801-39000] [39001-39200] [39201-39400] [39401-39600] [39601-39800] [39801-40000] [40001-40200] [40201-40400] [40401-40600] [40601-40800] [40801-41000] [41001-41200] [41201-41400] [41401-41600] [41601-41800] [41801-42000] [42001-42200] [42201-42400] [42401-42600] [42601-42800] [42801-43000] [43001-43200] [43201-43400] [43401-43600] [43601-43800] [43801-44000] [44001-44200] [44201-44400] [44401-44600] [44601-44800] [44801-45000] [45001-45200] [45201-45400] [45401-45600] [45601-45800] [45801-46000] [46001-46200] [46201-46400] [46401-46600] [46601-46800] [46801-47000] [47001-47200] [47201-47400] [47401-47600] [47601-47800] [47801-48000] [48001-48200] [48201-48400] [48401-48600] [48601-48800] [48801-49000] [49001-49200] [49201-49400] [49401-49600] [49601-49800] [49801-50000] [50001-50200] [50201-50388]

Designation T Tech N Date Right Ascension Declination Apparent Magnitude Star Catalog Site code χ Used A Used M
yr-mo-day precision hr:min:sec precision rms F bias residual deg min sec precision rms F bias residual mag/col rms residual
2005GN59 O C 2007-03-20.41436 1.000E-05 13:44:26.840 1.500E-01 0.500 F -0.036 -0.102 -16° 36' 32.60" 1.000E-01 0.500 F 0.147 0.078 19.4 V 0.70 -0.12 o 691 0.25 Yes Yes
2004BV102 O C 2007-03-20.42687 1.000E-05 13:49:27.970 1.500E-01 0.500 F 0.128 -0.226 -18° 58' 13.30" 1.000E-01 0.500 F -0.161 0.179 21.2 V 0.70 0.35 o 691 0.58 Yes Yes
2005GN59 O C 2007-03-20.43201 1.000E-05 13:44:25.330 1.500E-01 0.500 F -0.036 -0.118 -16° 36' 21.80" 1.000E-01 0.500 F 0.147 -0.044 19.5 V 0.70 -0.02 o 691 0.25 Yes Yes
2004BV102 O C 2007-03-20.44453 1.000E-05 13:49:26.650 1.500E-01 0.500 F 0.128 -0.009 -18° 58' 11.80" 1.000E-01 0.500 F -0.161 -0.095 21.1 V 0.70 0.25 o 691 0.19 Yes Yes
2005GN59 O C 2007-03-20.44966 1.000E-05 13:44:23.830 1.500E-01 0.500 F -0.036 -0.008 -16° 36' 10.70" 1.000E-01 0.500 F 0.147 0.102 19.4 V 0.70 -0.12 o 691 0.20 Yes Yes
2004BV102 O C 2007-03-20.46218 1.000E-05 13:49:25.300 1.500E-01 0.500 F 0.128 -0.238 -18° 58' 10.10" 1.000E-01 0.500 F -0.161 -0.193 21.1 V 0.70 0.25 o 691 0.62 Yes Yes
2007ED125 O C 2007-03-20.46994 1.000E-05 14:30:41.070 1.500E-01 0.500 F 0.200 -0.118 -10° 26' 15.70" 1.000E-01 0.500 F 0.005 -0.215 20.3 V 0.70 0.67 o 691 0.49 Yes Yes
2007ED125 O C 2007-03-20.48767 1.000E-05 14:30:36.860 1.500E-01 0.500 F 0.200 -0.416 -10° 25' 42.50" 1.000E-01 0.500 F 0.005 -0.237 20.0 V 0.70 0.37 o 691 0.96 Yes Yes
2007ED125 O C 2007-03-20.50539 1.000E-05 14:30:32.700 1.500E-01 0.500 F 0.200 -0.208 -10° 25' 09.10" 1.000E-01 0.500 F 0.005 -0.090 19.8 V 0.70 0.17 o 691 0.46 Yes Yes
2006FV35 O C t 2007-03-26.23581 1.000E-05 12:43:20.360 1.500E-01 0.500 F 0.091 0.464 -01° 06' 46.70" 1.000E-01 0.500 F 0.115 -1.127 o 691 2.45 Yes No
2007FS35 O C 2007-03-26.25088 1.000E-05 12:32:22.320 1.500E-01 0.500 F 0.133 -0.539 -03° 26' 52.00" 1.000E-01 0.500 F 0.158 0.129 20.8 V 0.70 0.23 o 691 1.12 Yes Yes
2007FS35 O C 2007-03-26.26853 1.000E-05 12:32:20.950 1.500E-01 0.500 F 0.133 -0.176 -03° 26' 43.20" 1.000E-01 0.500 F 0.158 0.074 20.7 V 0.70 0.13 o 691 0.39 Yes Yes
2007FS35 O C 2007-03-26.28618 1.000E-05 12:32:19.550 1.500E-01 0.500 F 0.133 -0.217 -03° 26' 34.30" 1.000E-01 0.500 F 0.158 0.109 20.8 V 0.70 0.23 o 691 0.49 Yes Yes
2002EZ11 O C 2007-03-26.40211 1.000E-05 13:50:49.020 1.500E-01 0.500 F 0.146 -0.528 -08° 33' 04.00" 1.000E-01 0.500 F 0.112 -0.085 20.9 V 0.70 0.46 o 691 1.07 Yes Yes
2006UO O C H 2007-03-26.41208 1.000E-05 14:08:08.170 1.500E-01 0.500 F 0.304 0.472 -11° 51' 58.60" 1.000E-01 0.500 F 0.050 -0.102 21.5 V 0.70 -0.71 o 691 1.13 Yes Yes
2000NG11 O C 2007-03-26.41460 1.000E-05 14:00:58.510 1.500E-01 0.500 F 0.278 -0.475 -11° 29' 53.30" 1.000E-01 0.500 F 0.078 -0.298 21.2 V 0.70 0.34 o 691 1.12 Yes Yes
Anza O C H 2007-03-26.41712 1.000E-05 13:49:10.780 1.500E-01 0.500 F 0.225 -0.827 -11° 45' 58.60" 1.000E-01 0.500 F 0.114 0.243 21.6 V 0.70 0.26 o 691 1.73 Yes Yes
2002EZ11 O C 2007-03-26.41972 1.000E-05 13:50:46.750 1.500E-01 0.500 F 0.146 -0.303 -08° 32' 50.90" 1.000E-01 0.500 F 0.112 -0.069 20.8 V 0.70 0.36 o 691 0.62 Yes Yes
2000NG11 O C 2007-03-26.43222 1.000E-05 14:00:57.540 1.500E-01 0.500 F 0.278 -0.086 -11° 29' 47.90" 1.000E-01 0.500 F 0.078 -0.087 21.1 V 0.70 0.24 o 691 0.25 Yes Yes
Anza O C H 2007-03-26.43474 1.000E-05 13:49:10.010 1.500E-01 0.500 F 0.225 0.637 -11° 45' 54.50" 1.000E-01 0.500 F 0.114 -0.995 o 691 2.36 Yes No
2002EZ11 O C 2007-03-26.43734 1.000E-05 13:50:44.450 1.500E-01 0.500 F 0.146 -0.511 -08° 32' 38.00" 1.000E-01 0.500 F 0.112 -0.281 20.7 V 0.70 0.26 o 691 1.17 Yes Yes
2000NG11 O C 2007-03-26.44983 1.000E-05 14:00:56.540 1.500E-01 0.500 F 0.278 -0.157 -11° 29' 42.20" 1.000E-01 0.500 F 0.078 0.414 21.0 V 0.70 0.14 o 691 0.89 Yes Yes
Anza O C H 2007-03-26.45235 1.000E-05 13:49:09.050 1.500E-01 0.500 F 0.225 -0.706 -11° 45' 49.10" 1.000E-01 0.500 F 0.114 -0.939 o 691 2.35 Yes No
1999AP10 O C H 2007-03-29.24908 1.000E-05 13:09:36.250 1.500E-01 0.500 F -0.030 0.275 -11° 15' 52.70" 1.000E-01 0.500 F 0.078 -0.659 o 691 1.43 Yes No
1999AP10 O C H 2007-03-29.26669 1.000E-05 13:09:35.120 1.500E-01 0.500 F -0.030 0.029 -11° 15' 47.90" 1.000E-01 0.500 F 0.078 -0.702 o 691 1.40 Yes No
1999AP10 O C H 2007-03-29.28427 1.000E-05 13:09:34.040 1.500E-01 0.500 F -0.030 0.510 -11° 15' 43.50" 1.000E-01 0.500 F 0.078 -1.145 21.4 V 0.70 0.21 o 691 2.51 Yes Yes
2000NG11 O C 2007-04-08.20714 1.000E-05 13:47:39.930 1.500E-01 0.500 F 0.141 -0.555 -10° 17' 43.90" 1.000E-01 0.500 F 0.069 0.165 o 691 1.16 Yes No
2000NG11 O C 2007-04-08.22475 1.000E-05 13:47:38.740 1.500E-01 0.500 F 0.141 0.106 -10° 17' 37.60" 1.000E-01 0.500 F 0.069 -0.096 o 691 0.29 Yes No
2000NG11 O C 2007-04-08.25270 1.000E-05 13:47:36.720 1.500E-01 0.500 F 0.141 -0.698 -10° 17' 27.20" 1.000E-01 0.500 F 0.069 -0.128 o 691 1.42 Yes No
Apollo O C 2007-04-09.41760 1.000E-05 15:52:13.430 1.500E-01 0.500 F 0.018 -0.351 -17° 24' 56.40" 1.000E-01 0.500 F 0.108 0.095 16.1 V 0.70 0.33 o 691 0.72 Yes Yes
1999FB O C H 2007-04-09.42769 1.000E-05 15:35:28.010 1.500E-01 0.500 F 0.059 1.355 -19° 29' 52.50" 1.000E-01 0.500 F -0.024 -0.786 o 691 3.14 Yes No
Apollo O C 2007-04-09.43522 1.000E-05 15:52:15.380 1.500E-01 0.500 F 0.018 -0.286 -17° 25' 13.80" 1.000E-01 0.500 F 0.108 0.085 16.3 V 0.70 0.53 o 691 0.59 Yes Yes
1999FB O C H 2007-04-09.44531 1.000E-05 15:35:26.140 1.500E-01 0.500 F 0.059 0.099 -19° 29' 52.60" 1.000E-01 0.500 F -0.024 -0.132 20.9 V 0.70 0.68 o 691 0.33 Yes Yes
Apollo O C 2007-04-09.45283 1.000E-05 15:52:17.310 1.500E-01 0.500 F 0.018 -0.528 -17° 25' 31.70" 1.000E-01 0.500 F 0.108 -0.496 15.8 V 0.70 0.03 o 691 1.45 Yes Yes
2002XG84 O C H 2007-04-11.18900 1.000E-05 12:12:06.520 1.500E-01 0.500 F 0.187 -0.779 +01° 59' 36.80" 1.000E-01 0.500 F 0.144 -0.549 22.0 V 0.70 0.10 o 691 1.91 Yes Yes
2002XG84 O C H 2007-04-11.20235 1.000E-05 12:12:05.350 1.500E-01 0.500 F 0.187 -0.701 +01° 59' 42.20" 1.000E-01 0.500 F 0.144 -0.228 21.7 V 0.70 -0.20 o 691 1.48 Yes Yes
2002XG84 O C H 2007-04-11.21570 1.000E-05 12:12:04.260 1.500E-01 0.500 F 0.187 0.589 +01° 59' 46.90" 1.000E-01 0.500 F 0.144 -0.605 21.6 V 0.70 -0.30 o 691 1.70 Yes Yes
2004HZ O C 2007-04-11.34609 1.000E-05 14:52:35.150 1.500E-01 0.500 F 0.010 -0.457 -17° 04' 42.60" 1.000E-01 0.500 F -0.014 0.249 19.5 V 0.70 0.49 o 691 1.07 Yes Yes
2004HZ O C 2007-04-11.36369 1.000E-05 14:52:39.100 1.500E-01 0.500 F 0.010 -0.197 -17° 04' 28.60" 1.000E-01 0.500 F -0.014 -0.022 19.6 V 0.70 0.59 o 691 0.41 Yes Yes
1993HO1 O C 2007-04-11.37121 1.000E-05 15:01:26.960 1.500E-01 0.500 F 0.090 -0.104 -19° 32' 46.80" 1.000E-01 0.500 F -0.121 0.082 17.8 V 0.70 0.47 o 691 0.27 Yes Yes
2004HZ O C 2007-04-11.38130 1.000E-05 14:52:43.040 1.500E-01 0.500 F 0.010 -0.166 -17° 04' 13.80" 1.000E-01 0.500 F -0.014 0.236 19.4 V 0.70 0.40 o 691 0.60 Yes Yes
1993HO1 O C 2007-04-11.38882 1.000E-05 15:01:25.330 1.500E-01 0.500 F 0.090 -0.078 -19° 32' 49.70" 1.000E-01 0.500 F -0.121 0.034 17.7 V 0.70 0.37 o 691 0.17 Yes Yes
1999FB O C 2007-04-11.41173 1.000E-05 15:32:06.740 1.500E-01 0.500 F 0.046 -0.550 -19° 31' 01.00" 1.000E-01 0.500 F -0.085 0.175 20.4 V 0.70 0.25 o 691 1.16 Yes Yes
2007GS4 O C 2007-04-11.41425 1.000E-05 15:20:35.230 1.500E-01 0.500 F 0.085 -0.068 -19° 16' 36.90" 1.000E-01 0.500 F -0.269 -0.059 20.7 V 0.70 0.23 o 691 0.21 Yes Yes
1999FB O C 2007-04-11.42939 1.000E-05 15:32:04.840 1.500E-01 0.500 F 0.046 -0.342 -19° 31' 01.80" 1.000E-01 0.500 F -0.085 -0.226 20.2 V 0.70 0.05 o 691 0.82 Yes Yes
2007GS4 O C 2007-04-11.43191 1.000E-05 15:20:30.890 1.500E-01 0.500 F 0.085 0.284 -19° 17' 30.60" 1.000E-01 0.500 F -0.269 0.651 21.0 V 0.70 0.53 o 691 1.67 Yes Yes
1999FB O C 2007-04-11.44706 1.000E-05 15:32:02.940 1.500E-01 0.500 F 0.046 -0.118 -19° 31' 02.10" 1.000E-01 0.500 F -0.085 -0.162 20.3 V 0.70 0.15 o 691 0.40 Yes Yes
2007GS4 O C 2007-04-11.44957 1.000E-05 15:20:26.510 1.500E-01 0.500 F 0.085 0.036 -19° 18' 26.30" 1.000E-01 0.500 F -0.269 -0.738 20.9 V 0.70 0.43 o 691 1.73 Yes Yes
2005SA71 O C H 2007-04-11.47305 1.000E-05 16:05:12.300 1.500E-01 0.500 F -0.043 -0.126 -15° 24' 21.20" 1.000E-01 0.500 F 0.025 -0.607 20.3 V 0.70 0.14 o 691 1.24 Yes Yes
2005SA71 O C H 2007-04-11.49065 1.000E-05 16:05:12.070 1.500E-01 0.500 F -0.043 0.515 -15° 24' 38.00" 1.000E-01 0.500 F 0.025 0.229 20.5 V 0.70 0.34 o 691 1.13 Yes Yes
2005SA71 O C H 2007-04-11.50834 1.000E-05 16:05:11.790 1.500E-01 0.500 F -0.043 0.420 -15° 24' 55.90" 1.000E-01 0.500 F 0.025 0.031 20.4 V 0.70 0.24 o 691 0.85 Yes Yes
2002XG84 O C H 2007-04-14.19714 1.000E-05 12:07:56.120 1.500E-01 0.500 F 0.213 -0.257 +02° 17' 47.20" 1.000E-01 0.500 F 0.167 -0.239 21.8 V 0.70 -0.20 o 691 0.70 Yes Yes
2002XG84 O C H 2007-04-14.22387 1.000E-05 12:07:53.920 1.500E-01 0.500 F 0.213 0.072 +02° 17' 55.60" 1.000E-01 0.500 F 0.167 -1.045 o 691 2.10 Yes No
2004BE68 O C H 2007-04-14.32880 1.000E-05 14:43:04.830 1.500E-01 0.500 F 0.153 -0.602 -13° 45' 05.80" 1.000E-01 0.500 F 0.005 -1.014 o 691 2.36 Yes No
2004HZ O C t 2007-04-14.36029 1.000E-05 15:07:50.480 1.500E-01 0.500 F 0.112 0.238 -16° 09' 09.50" 1.000E-01 0.500 F 0.027 -0.421 18.7 V 0.70 0.20 o 691 1.00 Yes Yes
2004HZ O C H 2007-04-14.39553 1.000E-05 15:08:02.420 1.500E-01 0.500 F 0.112 0.218 -16° 08' 18.00" 1.000E-01 0.500 F 0.027 -0.463 o 691 1.06 Yes No
2001UA5 O C 2007-04-14.41486 1.000E-05 15:43:45.520 1.500E-01 0.500 F -0.005 -0.309 -14° 28' 00.90" 1.000E-01 0.500 F 0.128 0.004 20.8 V 0.70 0.26 o 691 0.62 Yes Yes
2007GD49 O C 2007-04-14.42502 1.000E-05 15:25:39.880 1.500E-01 0.500 F 0.085 -0.215 -15° 48' 35.30" 1.000E-01 0.500 F -0.005 -0.200 20.7 V 0.70 0.09 o 691 0.59 Yes Yes
2001UA5 O C 2007-04-14.43308 1.000E-05 15:43:44.120 1.500E-01 0.500 F -0.005 -0.372 -14° 28' 00.00" 1.000E-01 0.500 F 0.128 0.111 21.1 V 0.70 0.56 o 691 0.78 Yes Yes
2007GD49 O C 2007-04-14.44324 1.000E-05 15:25:38.730 1.500E-01 0.500 F 0.085 -0.384 -15° 48' 41.70" 1.000E-01 0.500 F -0.005 -0.313 20.7 V 0.70 0.09 o 691 0.99 Yes Yes
2001UA5 O C 2007-04-14.45077 1.000E-05 15:43:42.780 1.500E-01 0.500 F -0.005 -0.158 -14° 27' 59.30" 1.000E-01 0.500 F 0.128 0.021 20.8 V 0.70 0.26 o 691 0.32 Yes Yes
2007GD49 O C 2007-04-14.46092 1.000E-05 15:25:37.610 1.500E-01 0.500 F 0.085 -0.616 -15° 48' 47.20" 1.000E-01 0.500 F -0.005 0.274 20.7 V 0.70 0.09 o 691 1.36 Yes Yes
2007GC O C 2007-04-15.13952 1.000E-05 11:36:19.390 1.500E-01 0.500 F 0.132 -0.493 +05° 37' 32.80" 1.000E-01 0.500 F 0.269 0.156 21.0 V 0.70 0.68 o 691 1.07 Yes Yes
2007GC O C 2007-04-15.15330 1.000E-05 11:36:19.070 1.500E-01 0.500 F 0.132 -0.386 +05° 38' 01.30" 1.000E-01 0.500 F 0.269 0.133 20.9 V 0.70 0.58 o 691 0.84 Yes Yes
2007GC O C 2007-04-15.16653 1.000E-05 11:36:18.750 1.500E-01 0.500 F 0.132 -0.395 +05° 38' 28.50" 1.000E-01 0.500 F 0.269 -0.039 20.7 V 0.70 0.38 o 691 0.82 Yes Yes
2001SJ276 O C H 2007-04-15.29529 1.000E-05 14:37:10.160 1.500E-01 0.500 F 0.008 0.317 -18° 20' 11.30" 1.000E-01 0.500 F 0.076 -0.592 20.0 0.70 -0.71 o 691 1.36 Yes Yes
2001SJ276 O C H 2007-04-15.31051 1.000E-05 14:37:09.130 1.500E-01 0.500 F 0.008 0.338 -18° 19' 44.00" 1.000E-01 0.500 F 0.076 -0.766 o 691 1.69 Yes No
2001SJ276 O C H 2007-04-15.32573 1.000E-05 14:37:08.100 1.500E-01 0.500 F 0.008 0.388 -18° 19' 16.10" 1.000E-01 0.500 F 0.076 -0.376 19.9 0.70 -0.81 o 691 1.09 Yes Yes
2004BE68 O C H 2007-04-18.26959 1.000E-05 14:38:31.790 1.500E-01 0.500 F 0.143 0.240 -13° 02' 31.60" 1.000E-01 0.500 F -0.004 -0.941 22.0 0.70 -0.61 o 691 1.95 Yes Yes
2001UA5 O C H 2007-04-18.38290 1.000E-05 15:38:36.850 1.500E-01 0.500 F 0.059 -0.851 -14° 24' 43.30" 1.000E-01 0.500 F 0.089 0.411 21.0 V 0.70 0.54 o 691 1.89 Yes Yes
2004HZ O C t 2007-04-18.38536 1.000E-05 15:43:14.820 1.500E-01 0.500 F 0.110 -0.022 -13° 32' 25.90" 1.000E-01 0.500 F 0.136 -0.702 18.2 V 0.70 0.45 o 691 1.48 Yes Yes
2007GD49 O C 2007-04-18.39552 1.000E-05 15:21:22.730 1.500E-01 0.500 F 0.030 -0.083 -16° 11' 44.50" 1.000E-01 0.500 F 0.015 -0.251 21.2 V 0.70 0.74 o 691 0.53 Yes Yes
2001UA5 O C H 2007-04-18.40058 1.000E-05 15:38:35.420 1.500E-01 0.500 F 0.059 0.015 -14° 24' 42.50" 1.000E-01 0.500 F 0.089 0.202 o 691 0.40 Yes No
2004HZ O C t 2007-04-18.40304 1.000E-05 15:43:27.240 1.500E-01 0.500 F 0.110 -0.257 -13° 31' 21.00" 1.000E-01 0.500 F 0.136 -0.231 18.1 V 0.70 0.35 o 691 0.73 Yes Yes
2007GD49 O C 2007-04-18.41320 1.000E-05 15:21:21.460 1.500E-01 0.500 F 0.030 -0.285 -16° 11' 50.40" 1.000E-01 0.500 F 0.015 0.053 20.6 V 0.70 0.14 o 691 0.58 Yes Yes
2001UA5 O C H 2007-04-18.41825 1.000E-05 15:38:33.900 1.500E-01 0.500 F 0.059 -0.436 -14° 24' 41.40" 1.000E-01 0.500 F 0.089 0.272 20.8 V 0.70 0.34 o 691 1.03 Yes Yes
2004HZ O C t 2007-04-18.42071 1.000E-05 15:43:39.770 1.500E-01 0.500 F 0.110 0.470 -13° 30' 16.00" 1.000E-01 0.500 F 0.136 -0.236 18.1 V 0.70 0.36 o 691 1.14 Yes Yes
2007GD49 O C 2007-04-18.43087 1.000E-05 15:21:20.220 1.500E-01 0.500 F 0.030 -0.067 -16° 11' 56.70" 1.000E-01 0.500 F 0.015 -0.061 20.6 V 0.70 0.14 o 691 0.18 Yes Yes
2006QY110 O C 2007-04-19.30744 1.000E-05 14:23:09.630 1.500E-01 0.500 F 0.224 -0.318 -16° 19' 44.00" 1.000E-01 0.500 F 0.090 0.045 20.4 V 0.70 0.23 o 691 0.65 Yes Yes
2001SJ276 O C 2007-04-19.30990 1.000E-05 14:32:39.680 1.500E-01 0.500 F 0.094 -0.032 -16° 14' 00.30" 1.000E-01 0.500 F -0.014 0.207 20.1 V 0.70 0.40 o 691 0.42 Yes Yes
2006QY110 O C 2007-04-19.32583 1.000E-05 14:23:07.790 1.500E-01 0.500 F 0.224 -0.021 -16° 19' 30.80" 1.000E-01 0.500 F 0.090 0.235 20.7 V 0.70 0.53 o 691 0.47 Yes Yes
2001SJ276 O C 2007-04-19.32854 1.000E-05 14:32:38.270 1.500E-01 0.500 F 0.094 -0.293 -16° 13' 24.20" 1.000E-01 0.500 F -0.014 -0.133 20.0 V 0.70 0.30 o 691 0.66 Yes Yes
2006QY110 O C 2007-04-19.34448 1.000E-05 14:23:05.890 1.500E-01 0.500 F 0.224 -0.206 -16° 19' 18.10" 1.000E-01 0.500 F 0.090 -0.287 20.5 V 0.70 0.33 o 691 0.71 Yes Yes
2001SJ276 O C 2007-04-19.34694 1.000E-05 14:32:36.850 1.500E-01 0.500 F 0.094 -0.939 -16° 12' 48.20" 1.000E-01 0.500 F -0.014 -0.151 20.5 V 0.70 0.80 o 691 1.95 Yes Yes
2007GD49 O C 2007-04-19.42568 1.000E-05 15:20:10.480 1.500E-01 0.612 F 0.030 -0.396 -16° 17' 47.90" 1.000E-01 0.612 F 0.015 -0.137 20.5 V 0.70 0.08 o 691 0.69 Yes Yes
2007GD49 O C 2007-04-19.42814 1.000E-05 15:20:10.320 1.500E-01 0.612 F 0.030 -0.111 -16° 17' 48.80" 1.000E-01 0.612 F 0.015 -0.174 20.5 V 0.70 0.08 o 691 0.34 Yes Yes
2007GD49 O C 2007-04-19.44408 1.000E-05 15:20:09.150 1.500E-01 0.612 F 0.030 -0.188 -16° 17' 54.30" 1.000E-01 0.612 F 0.015 -0.090 20.6 V 0.70 0.18 o 691 0.34 Yes Yes
2007GD49 O C 2007-04-19.44678 1.000E-05 15:20:08.960 1.500E-01 0.612 F 0.030 -0.084 -16° 17' 55.30" 1.000E-01 0.612 F 0.015 -0.146 20.6 V 0.70 0.18 o 691 0.28 Yes Yes
2007GD49 O C 2007-04-19.46272 1.000E-05 15:20:07.790 1.500E-01 0.612 F 0.030 -0.177 -16° 18' 00.80" 1.000E-01 0.612 F 0.015 -0.077 20.7 V 0.70 0.28 o 691 0.32 Yes Yes
2007GD49 O C 2007-04-19.46518 1.000E-05 15:20:07.620 1.500E-01 0.612 F 0.030 -0.041 -16° 18' 01.70" 1.000E-01 0.612 F 0.015 -0.118 20.5 V 0.70 0.08 o 691 0.20 Yes Yes
2007ED125 O C H 2007-04-20.16022 1.000E-05 13:18:14.900 1.500E-01 0.500 F 0.154 0.421 -01° 22' 12.20" 1.000E-01 0.500 F 0.065 -0.024 o 691 0.85 Yes No
2007ED125 O C H 2007-04-20.17987 1.000E-05 13:18:13.330 1.500E-01 0.500 F 0.154 -0.647 -01° 22' 04.50" 1.000E-01 0.500 F 0.065 -0.234 o 691 1.39 Yes No
2007ED125 O C H 2007-04-20.19607 1.000E-05 13:18:12.140 1.500E-01 0.500 F 0.154 0.139 -01° 21' 58.80" 1.000E-01 0.500 F 0.065 -1.048 o 691 2.13 Yes No
2003UD8 O C H 2007-04-20.24412 1.000E-05 13:52:47.260 1.500E-01 0.500 F 0.172 -0.431 -14° 26' 44.10" 1.000E-01 0.500 F 0.169 -0.381 o 691 1.16 Yes No
2003UD8 O C H 2007-04-20.26324 1.000E-05 13:52:46.120 1.500E-01 0.500 F 0.172 -0.622 -14° 26' 37.10" 1.000E-01 0.500 F 0.169 -0.021 o 691 1.25 Yes No
2007ED125 O C H 2007-04-22.16339 1.000E-05 13:15:59.970 1.500E-01 0.500 F 0.190 -0.446 -01° 09' 47.30" 1.000E-01 0.500 F 0.119 -0.211 20.9 V 0.70 -0.10 o 691 0.99 Yes Yes
2007ED125 O C H 2007-04-22.18016 1.000E-05 13:15:58.860 1.500E-01 0.500 F 0.190 0.147 -01° 09' 41.60" 1.000E-01 0.500 F 0.119 -0.187 21.4 V 0.70 0.40 o 691 0.48 Yes Yes
2007ED125 O C H 2007-04-22.19693 1.000E-05 13:15:57.690 1.500E-01 0.500 F 0.190 -0.075 -01° 09' 36.00" 1.000E-01 0.500 F 0.119 -0.257 20.9 V 0.70 -0.10 o 691 0.54 Yes Yes
2004YJ32 O C 2007-04-22.20513 1.000E-05 14:29:54.510 1.500E-01 0.500 F 0.058 -0.564 -02° 58' 25.40" 1.000E-01 0.500 F 0.100 -0.285 20.9 V 0.70 0.19 o 691 1.27 Yes Yes
2004YJ32 O C 2007-04-22.22469 1.000E-05 14:29:53.380 1.500E-01 0.500 F 0.058 -0.047 -02° 58' 18.30" 1.000E-01 0.500 F 0.100 0.054 21.0 V 0.70 0.29 o 691 0.14 Yes Yes
2004YJ32 O C 2007-04-22.24375 1.000E-05 14:29:52.230 1.500E-01 0.500 F 0.058 -0.238 -02° 58' 11.90" 1.000E-01 0.500 F 0.100 -0.135 21.0 V 0.70 0.29 o 691 0.55 Yes Yes
2001SJ276 O C 2007-04-22.27977 1.000E-05 14:29:04.610 1.500E-01 0.500 F 0.110 -0.552 -14° 34' 47.80" 1.000E-01 0.500 F 0.079 1.297 19.3 V 0.70 -0.23 o 691 2.85 Yes Yes
2001SJ276 O C 2007-04-22.29892 1.000E-05 14:29:03.160 1.500E-01 0.500 F 0.110 0.156 -14° 34' 10.30" 1.000E-01 0.500 F 0.079 -0.353 19.8 V 0.70 0.27 o 691 0.78 Yes Yes
2001SJ276 O C 2007-04-22.31855 1.000E-05 14:29:01.600 1.500E-01 0.500 F 0.110 -0.152 -14° 33' 29.90" 1.000E-01 0.500 F 0.079 -0.131 19.8 V 0.70 0.27 o 691 0.41 Yes Yes
2001UA5 O C H 2007-04-22.41503 1.000E-05 15:32:55.020 1.500E-01 0.500 F 0.097 -0.134 -14° 20' 27.70" 1.000E-01 0.500 F -0.018 -0.118 o 691 0.36 Yes No
2001UA5 O C H 2007-04-22.43468 1.000E-05 15:32:53.240 1.500E-01 0.500 F 0.097 -0.190 -14° 20' 26.10" 1.000E-01 0.500 F -0.018 0.049 o 691 0.39 Yes No
2007HW3 O C H 2007-04-23.15386 1.000E-05 13:15:02.990 1.500E-01 0.500 F 0.181 0.561 -04° 46' 16.80" 1.000E-01 0.500 F 0.041 -0.306 o 691 1.31 Yes No
2007HW3 O C H 2007-04-23.19257 1.000E-05 13:15:00.330 1.500E-01 0.500 F 0.181 0.199 -04° 44' 42.00" 1.000E-01 0.500 F 0.041 0.281 o 691 0.71 Yes No
2006QY110 O C H 2007-04-23.27577 1.000E-05 14:16:45.410 1.500E-01 0.500 F 0.250 0.159 -15° 32' 47.80" 1.000E-01 0.500 F 0.073 -0.038 o 691 0.33 Yes No
2006PY17 O C H 2007-04-23.33105 1.000E-05 14:02:09.640 1.500E-01 0.500 F 0.043 -0.849 -18° 43' 42.40" 1.000E-01 0.500 F 0.031 0.707 o 691 2.24 Yes No
2007GY1 O C 2007-04-24.15386 1.000E-05 13:09:15.890 1.500E-01 0.500 F 0.235 -0.663 -01° 31' 30.50" 1.000E-01 0.500 F 0.116 -0.062 20.5 V 0.70 0.27 o 691 1.49 Yes Yes
2007GY1 O C 2007-04-24.17153 1.000E-05 13:09:17.320 1.500E-01 0.500 F 0.235 0.234 -01° 31' 51.50" 1.000E-01 0.500 F 0.116 -0.200 20.3 V 0.70 0.07 o 691 0.70 Yes Yes
2007GY1 O C 2007-04-24.18674 1.000E-05 13:09:18.470 1.500E-01 0.500 F 0.235 0.038 -01° 32' 09.40" 1.000E-01 0.500 F 0.116 -0.173 20.4 V 0.70 0.17 o 691 0.40 Yes Yes
2004YJ32 O C H 2007-04-24.19343 1.000E-05 14:27:57.430 1.500E-01 0.500 F 0.087 0.270 -02° 47' 00.40" 1.000E-01 0.500 F 0.125 1.036 o 691 2.14 Yes No
2004YJ32 O C H 2007-04-24.21103 1.000E-05 14:27:56.370 1.500E-01 0.500 F 0.087 0.355 -02° 46' 54.90" 1.000E-01 0.500 F 0.125 0.549 o 691 1.31 Yes No
2004YJ32 O C H 2007-04-24.22864 1.000E-05 14:27:55.260 1.500E-01 0.500 F 0.087 -0.268 -02° 46' 49.90" 1.000E-01 0.500 F 0.125 -0.442 o 691 1.04 Yes No
2007HA59 O C 2007-04-24.42829 1.000E-05 16:01:25.920 1.500E-01 0.500 F 0.129 0.099 -13° 04' 23.80" 1.000E-01 0.500 F 0.168 -0.132 20.8 V 0.70 0.02 o 691 0.33 Yes Yes
2007HA59 O C 2007-04-24.44594 1.000E-05 16:01:24.600 1.500E-01 0.500 F 0.129 -0.400 -13° 04' 25.10" 1.000E-01 0.500 F 0.168 -0.161 21.0 V 0.70 0.22 o 691 0.86 Yes Yes
2007HA59 O C 2007-04-24.46356 1.000E-05 16:01:23.350 1.500E-01 0.500 F 0.129 0.082 -13° 04' 26.40" 1.000E-01 0.500 F 0.168 -0.200 20.9 V 0.70 0.12 o 691 0.43 Yes Yes
2001SJ276 O C 2007-04-25.22115 1.000E-05 14:25:22.770 1.500E-01 0.500 F 0.184 0.253 -12° 52' 33.10" 1.000E-01 0.500 F 0.004 0.745 20.3 V 0.70 0.95 o 691 1.60 Yes Yes
2001SJ276 O C 2007-04-25.23878 1.000E-05 14:25:21.330 1.500E-01 0.500 F 0.184 -0.113 -12° 51' 56.40" 1.000E-01 0.500 F 0.004 0.193 19.7 V 0.70 0.35 o 691 0.45 Yes Yes
2001SJ276 O C 2007-04-25.25640 1.000E-05 14:25:19.920 1.500E-01 0.500 F 0.184 0.010 -12° 51' 19.30" 1.000E-01 0.500 F 0.004 0.032 19.6 V 0.70 0.25 o 691 0.07 Yes Yes
2002GQ5 O C t 2007-04-25.27318 1.000E-05 15:11:37.860 1.500E-01 0.500 F 0.110 1.241 -08° 39' 22.80" 1.000E-01 0.500 F 0.111 -0.705 20.3 V 0.70 -0.04 o 691 2.94 Yes Yes
2002GQ5 O C H 2007-04-25.29084 1.000E-05 15:11:34.030 1.500E-01 0.500 F 0.110 0.244 -08° 39' 19.60" 1.000E-01 0.500 F 0.111 -0.929 o 691 1.96 Yes No
2002GQ5 O C t 2007-04-25.30851 1.000E-05 15:11:30.290 1.500E-01 0.500 F 0.110 0.687 -08° 39' 16.90" 1.000E-01 0.500 F 0.111 -1.683 o 691 3.56 No No
2002GK8 O C 2007-04-25.32848 1.000E-05 15:40:42.270 1.500E-01 0.500 F 0.142 -0.402 -07° 04' 19.40" 1.000E-01 0.500 F 0.094 -0.021 20.6 V 0.70 0.18 o 691 0.81 Yes Yes
2002GK8 O C 2007-04-25.34608 1.000E-05 15:40:39.750 1.500E-01 0.500 F 0.142 -0.244 -07° 04' 52.20" 1.000E-01 0.500 F 0.094 -0.062 20.5 V 0.70 0.08 o 691 0.51 Yes Yes
2002GK8 O C 2007-04-25.36368 1.000E-05 15:40:37.200 1.500E-01 0.500 F 0.142 -0.476 -07° 05' 25.20" 1.000E-01 0.500 F 0.094 -0.300 20.7 V 0.70 0.28 o 691 1.13 Yes Yes
2007HP O C H 2007-04-26.14389 1.000E-05 13:20:07.830 1.500E-01 0.500 F 0.298 -0.051 -08° 12' 37.70" 1.000E-01 0.500 F 0.012 0.161 20.1 V 0.70 -0.06 o 691 0.35 Yes Yes
2007HP O C H 2007-04-26.16156 1.000E-05 13:20:06.170 1.500E-01 0.500 F 0.298 -0.017 -08° 12' 45.70" 1.000E-01 0.500 F 0.012 0.359 o 691 0.75 Yes No
2007HP O C H 2007-04-26.17923 1.000E-05 13:20:04.530 1.500E-01 0.500 F 0.298 0.581 -08° 12' 55.20" 1.000E-01 0.500 F 0.012 -1.024 o 691 2.45 Yes No
2001UA5 O C H 2007-04-26.37006 1.000E-05 15:26:58.580 1.500E-01 0.500 F 0.170 -0.409 -14° 15' 30.80" 1.000E-01 0.500 F -0.017 -0.220 o 691 0.93 Yes No
2001UA5 O C H 2007-04-26.38774 1.000E-05 15:26:56.890 1.500E-01 0.500 F 0.170 -0.561 -14° 15' 29.40" 1.000E-01 0.500 F -0.017 -0.256 o 691 1.23 Yes No
2001UA5 O C H 2007-04-26.40541 1.000E-05 15:26:55.270 1.500E-01 0.500 F 0.170 0.281 -14° 15' 27.90" 1.000E-01 0.500 F -0.017 -0.212 o 691 0.71 Yes No
2004YJ32 O C H 2007-04-27.23395 1.000E-05 14:24:54.750 1.500E-01 0.500 F 0.103 0.237 -02° 30' 00.80" 1.000E-01 0.500 F 0.091 -0.262 o 691 0.71 Yes No
2001SJ276 O C 2007-04-28.21831 1.000E-05 14:21:30.690 1.500E-01 0.500 F 0.121 -0.043 -11° 05' 15.70" 1.000E-01 0.500 F -0.089 -0.161 19.9 V 0.70 0.63 o 691 0.34 Yes Yes
2001SJ276 O C 2007-04-28.23591 1.000E-05 14:21:29.250 1.500E-01 0.500 F 0.121 -0.069 -11° 04' 37.60" 1.000E-01 0.500 F -0.089 -0.191 19.9 V 0.70 0.63 o 691 0.41 Yes Yes
2001SJ276 O C 2007-04-28.25105 1.000E-05 14:21:28.020 1.500E-01 0.500 F 0.121 0.083 -11° 04' 04.60" 1.000E-01 0.500 F -0.089 -0.012 19.7 V 0.70 0.43 o 691 0.17 Yes Yes
2000PP9 O C H 2007-04-28.32278 1.000E-05 15:27:59.870 1.500E-01 0.500 F 0.146 -0.158 -09° 23' 46.20" 1.000E-01 0.500 F -0.011 -0.369 20.8 V 0.70 -0.11 o 691 0.81 Yes Yes
2000PP9 O C H 2007-04-28.34038 1.000E-05 15:27:58.800 1.500E-01 0.500 F 0.146 -0.763 -09° 23' 34.90" 1.000E-01 0.500 F -0.011 0.324 21.1 V 0.70 0.20 o 691 1.67 Yes Yes
2000PP9 O C H 2007-04-28.35798 1.000E-05 15:27:57.860 1.500E-01 0.500 F 0.146 0.574 -09° 23' 24.20" 1.000E-01 0.500 F -0.011 0.398 20.6 V 0.70 -0.30 o 691 1.41 Yes Yes
2000UJ1 O C H 2007-04-28.42604 1.000E-05 15:42:20.320 1.500E-01 0.500 F 0.019 0.142 -13° 51' 47.60" 1.000E-01 0.500 F 0.123 -0.113 o 691 0.36 Yes No
2007HA59 O C H 2007-04-28.43095 1.000E-05 15:56:32.340 1.500E-01 0.500 F 0.069 0.476 -13° 09' 13.50" 1.000E-01 0.500 F 0.166 -0.595 o 691 1.53 Yes No
2000UJ1 O C H 2007-04-28.44363 1.000E-05 15:42:18.490 1.500E-01 0.500 F 0.019 0.729 -13° 51' 04.20" 1.000E-01 0.500 F 0.123 -0.649 o 691 1.95 Yes No
2007HA59 O C H 2007-04-28.44855 1.000E-05 15:56:30.990 1.500E-01 0.500 F 0.069 0.311 -13° 09' 14.30" 1.000E-01 0.500 F 0.166 -0.170 o 691 0.71 Yes No
2000UJ1 O C H 2007-04-28.46122 1.000E-05 15:42:16.590 1.500E-01 0.500 F 0.110 0.162 -13° 50' 19.40" 1.000E-01 0.500 F 0.136 0.169 o 691 0.47 Yes No
2007HA59 O C H 2007-04-28.46614 1.000E-05 15:56:29.600 1.500E-01 0.500 F 0.069 -0.461 -13° 09' 15.50" 1.000E-01 0.500 F 0.166 -0.152 o 691 0.97 Yes No
Pocahontas O C 2007-05-06.14618 1.000E-05 13:31:20.580 1.500E-01 0.500 F 0.172 -0.194 -01° 38' 55.30" 1.000E-01 0.500 F 0.021 -0.049 o 691 0.40 Yes No
Pocahontas O C 2007-05-06.16451 1.000E-05 13:31:19.450 1.500E-01 0.500 F 0.172 0.139 -01° 38' 41.60" 1.000E-01 0.500 F 0.021 -0.195 o 691 0.48 Yes No
Pocahontas O C 2007-05-06.18283 1.000E-05 13:31:18.340 1.500E-01 0.500 F 0.172 0.798 -01° 38' 28.50" 1.000E-01 0.500 F 0.021 -0.930 o 691 2.46 Yes No
Toutatis O C H 2007-05-06.40804 1.000E-05 15:55:04.060 1.500E-01 0.500 F -0.079 -0.278 -19° 46' 49.20" 1.000E-01 0.500 F 0.007 -0.192 o 691 0.68 Yes No
2006RG2 O C 2007-05-07.15037 1.000E-05 13:18:46.310 1.500E-01 0.500 F 0.346 -0.254 -08° 57' 48.50" 1.000E-01 0.500 F -0.035 -0.357 20.5 V 0.70 0.25 o 691 0.88 Yes Yes
2006RG2 O C 2007-05-07.16874 1.000E-05 13:18:45.340 1.500E-01 0.500 F 0.346 -0.368 -08° 57' 49.40" 1.000E-01 0.500 F -0.035 0.120 20.6 V 0.70 0.35 o 691 0.78 Yes Yes
2006RG2 O C 2007-05-07.18711 1.000E-05 13:18:44.390 1.500E-01 0.500 F 0.346 -0.154 -08° 57' 50.80" 1.000E-01 0.500 F -0.035 0.084 20.4 V 0.70 0.15 o 691 0.35 Yes Yes
2002LY45 O C 2007-05-07.20476 1.000E-05 13:55:17.340 1.500E-01 0.500 F 0.064 0.096 -03° 41' 30.80" 1.000E-01 0.500 F 0.080 0.375 20.5 V 0.70 0.05 o 691 0.78 Yes Yes
2002LY45 O C 2007-05-07.22061 1.000E-05 13:55:15.700 1.500E-01 0.500 F 0.064 0.013 -03° 41' 23.10" 1.000E-01 0.500 F 0.080 -0.197 20.9 V 0.70 0.45 o 691 0.40 Yes Yes
2002LY45 O C 2007-05-07.23645 1.000E-05 13:55:14.060 1.500E-01 0.500 F 0.064 -0.079 -03° 41' 14.50" 1.000E-01 0.500 F 0.080 0.136 20.8 V 0.70 0.35 o 691 0.31 Yes Yes
1998QK56 O C H 2007-05-08.39716 1.000E-05 16:46:43.750 1.500E-01 0.500 F 0.079 -0.208 -01° 07' 26.90" 1.000E-01 0.500 F 0.002 -0.522 o 691 1.13 Yes No
1998QK56 O C H 2007-05-08.41475 1.000E-05 16:46:42.430 1.500E-01 0.500 F 0.079 -0.110 -01° 07' 19.00" 1.000E-01 0.500 F 0.002 -0.605 o 691 1.23 Yes No
1998QK56 O C H 2007-05-08.43234 1.000E-05 16:46:41.120 1.500E-01 0.500 F 0.079 0.131 -01° 07' 10.80" 1.000E-01 0.500 F 0.002 -0.386 o 691 0.82 Yes No
McAuliffe O C 2007-05-09.35285 1.000E-05 16:18:26.000 1.500E-01 0.500 F -0.030 -0.261 -13° 30' 27.20" 1.000E-01 0.500 F 0.005 -0.064 18.3 V 0.70 0.64 o 691 0.54 Yes Yes
McAuliffe O C 2007-05-09.37045 1.000E-05 16:18:24.380 1.500E-01 0.500 F -0.030 -0.911 -13° 30' 25.10" 1.000E-01 0.500 F 0.005 0.037 18.0 V 0.70 0.34 o 691 1.82 Yes Yes
McAuliffe O C 2007-05-09.39151 1.000E-05 16:18:22.540 1.500E-01 0.500 F -0.030 -0.256 -13° 30' 22.70" 1.000E-01 0.500 F 0.005 0.015 18.2 V 0.70 0.55 o 691 0.51 Yes Yes
2002LY45 O C H 2007-05-10.15427 1.000E-05 13:50:28.970 1.500E-01 0.500 F 0.194 0.054 -03° 16' 59.60" 1.000E-01 0.500 F 0.104 -0.502 o 691 1.01 Yes No
2002LY45 O C H 2007-05-10.17287 1.000E-05 13:50:27.160 1.500E-01 0.500 F 0.194 -0.261 -03° 16' 50.70" 1.000E-01 0.500 F 0.104 -0.419 o 691 0.99 Yes No
2002LY45 O C H 2007-05-10.19146 1.000E-05 13:50:25.430 1.500E-01 0.500 F 0.194 0.630 -03° 16' 42.20" 1.000E-01 0.500 F 0.104 -0.730 o 691 1.93 Yes No
2019XG1 O C 2007-05-10.24541 1.000E-05 15:28:50.770 1.500E-01 0.500 F 0.113 -0.024 -15° 03' 23.00" 1.000E-01 0.500 F -0.016 -0.105 19.6 V 0.70 0.16 o 691 0.22 Yes Yes
2019XG1 O C 2007-05-10.26307 1.000E-05 15:28:49.380 1.500E-01 0.500 F 0.113 0.102 -15° 03' 29.60" 1.000E-01 0.500 F -0.016 -0.108 19.7 V 0.70 0.26 o 691 0.31 Yes Yes
2019XG1 O C 2007-05-10.28073 1.000E-05 15:28:47.960 1.500E-01 0.500 F 0.113 -0.153 -15° 03' 36.40" 1.000E-01 0.500 F -0.016 -0.352 19.5 V 0.70 0.06 o 691 0.77 Yes Yes
Toutatis O C H 2007-05-10.38231 1.000E-05 15:51:31.510 1.500E-01 0.500 F 0.020 0.784 -19° 36' 00.10" 1.000E-01 0.500 F 0.004 0.245 o 691 1.64 Yes No
2004LJ1 O C H 2007-05-10.38995 1.000E-05 15:23:05.400 1.500E-01 0.500 F -0.004 -0.169 -21° 06' 56.20" 1.000E-01 0.500 F -0.131 0.000 o 691 0.34 Yes No
Toutatis O C H 2007-05-10.39993 1.000E-05 15:51:30.440 1.500E-01 0.500 F 0.020 -0.507 -19° 35' 57.20" 1.000E-01 0.500 F 0.004 0.154 o 691 1.06 Yes No
2004LJ1 O C H 2007-05-10.40758 1.000E-05 15:23:04.080 1.500E-01 0.500 F -0.004 -0.137 -21° 06' 45.80" 1.000E-01 0.500 F -0.131 -0.140 o 691 0.39 Yes No
Toutatis O C H 2007-05-10.41756 1.000E-05 15:51:29.460 1.500E-01 0.500 F 0.020 -0.528 -19° 35' 54.30" 1.000E-01 0.500 F 0.004 0.051 o 691 1.06 Yes No
2004LJ1 O C H 2007-05-10.42522 1.000E-05 15:23:02.770 1.500E-01 0.500 F -0.004 0.020 -21° 06' 35.40" 1.000E-01 0.500 F -0.131 -0.304 o 691 0.61 Yes No
2002CZ46 O C H 2007-05-10.44263 1.000E-05 17:00:54.350 1.500E-01 0.500 F -0.119 0.352 +03° 22' 32.70" 1.000E-01 0.500 F 0.103 -0.881 o 691 1.90 Yes No
2002CZ46 O C H 2007-05-10.46139 1.000E-05 17:00:53.240 1.500E-01 0.500 F -0.119 0.701 +03° 22' 45.20" 1.000E-01 0.500 F 0.103 0.115 o 691 1.42 Yes No
2002CZ46 O C H 2007-05-10.48264 1.000E-05 17:00:51.910 1.500E-01 0.500 F -0.119 -0.023 +03° 22' 57.60" 1.000E-01 0.500 F 0.103 -0.507 o 691 1.02 Yes No
2001SE170 O C 2007-05-11.43499 1.000E-05 16:34:05.490 1.500E-01 0.500 F 0.049 -0.269 -05° 48' 54.50" 1.000E-01 0.500 F 0.097 0.240 20.3 V 0.70 0.40 o 691 0.73 Yes Yes
Ninkasi O C 2007-05-11.44262 1.000E-05 16:15:23.230 1.500E-01 0.500 F 0.127 -0.311 -06° 52' 59.00" 1.000E-01 0.500 F 0.145 0.038 18.8 V 0.70 0.11 o 691 0.63 Yes Yes
2001SE170 O C 2007-05-11.45259 1.000E-05 16:34:04.600 1.500E-01 0.500 F 0.049 -0.431 -05° 48' 29.80" 1.000E-01 0.500 F 0.097 0.095 20.5 V 0.70 0.60 o 691 0.89 Yes Yes
Ninkasi O C 2007-05-11.46022 1.000E-05 16:15:21.630 1.500E-01 0.500 F 0.127 -0.252 -06° 52' 32.10" 1.000E-01 0.500 F 0.145 -0.007 19.0 V 0.70 0.31 o 691 0.51 Yes Yes
2001SE170 O C 2007-05-11.47019 1.000E-05 16:34:03.770 1.500E-01 0.500 F 0.049 0.258 -05° 48' 05.10" 1.000E-01 0.500 F 0.097 -0.062 20.4 V 0.70 0.50 o 691 0.54 Yes Yes
Ninkasi O C 2007-05-11.47783 1.000E-05 16:15:20.030 1.500E-01 0.500 F 0.127 -0.267 -06° 52' 05.10" 1.000E-01 0.500 F 0.145 0.019 19.1 V 0.70 0.41 o 691 0.54 Yes Yes
2002LY45 O C H 2007-05-12.16517 1.000E-05 13:47:23.800 1.500E-01 0.500 F 0.220 0.652 -03° 01' 37.30" 1.000E-01 0.500 F 0.064 -0.528 o 691 1.68 Yes No
2002LY45 O C H 2007-05-12.17574 1.000E-05 13:47:22.800 1.500E-01 0.500 F 0.220 0.167 -03° 01' 32.40" 1.000E-01 0.500 F 0.064 -0.293 o 691 0.68 Yes No
2007HA59 O C 2007-05-12.25844 1.000E-05 15:38:29.680 1.500E-01 0.500 F 0.071 0.061 -13° 25' 08.60" 1.000E-01 0.500 F 0.143 -0.255 20.6 V 0.70 0.08 o 691 0.53 Yes Yes
2007HA59 O C 2007-05-12.27611 1.000E-05 15:38:28.240 1.500E-01 0.500 F 0.071 -0.014 -13° 25' 10.20" 1.000E-01 0.500 F 0.143 -0.626 20.8 V 0.70 0.28 o 691 1.26 Yes Yes
2007HA59 O C 2007-05-12.29379 1.000E-05 15:38:26.790 1.500E-01 0.500 F 0.071 -0.212 -13° 25' 11.10" 1.000E-01 0.500 F 0.143 -0.304 20.7 V 0.70 0.18 o 691 0.74 Yes Yes
2005LG8 O C H 2007-05-13.17818 1.000E-05 15:44:00.960 1.500E-01 0.500 F 0.077 1.488 -03° 08' 57.60" 1.000E-01 0.500 F 0.132 -0.814 o 691 3.39 No No
2005LG8 O C H 2007-05-13.19575 1.000E-05 15:43:59.360 1.500E-01 0.500 F 0.077 0.037 -03° 08' 47.20" 1.000E-01 0.500 F 0.132 -0.207 o 691 0.42 Yes No
2005LG8 O C H 2007-05-13.21334 1.000E-05 15:43:57.800 1.500E-01 0.500 F 0.077 -0.753 -03° 08' 37.80" 1.000E-01 0.500 F 0.132 -0.612 21.2 V 0.70 0.08 o 691 1.94 Yes Yes
2007JH22 O C H 2007-06-07.38000 1.000E-05 16:57:08.530 1.500E-01 0.500 F -0.138 -0.003 +03° 16' 40.20" 1.000E-01 0.500 F 0.110 -0.953 o 691 1.94 Yes No
2007JH22 O C H 2007-06-07.39756 1.000E-05 16:57:07.500 1.500E-01 0.500 F -0.138 -0.047 +03° 15' 56.20" 1.000E-01 0.500 F 0.110 -0.109 20.6 V 0.70 0.26 o 691 0.24 Yes Yes
2007JH22 O C H 2007-06-07.41512 1.000E-05 16:57:06.490 1.500E-01 0.500 F -0.138 0.013 +03° 15' 11.30" 1.000E-01 0.500 F 0.110 -0.182 20.2 V 0.70 -0.14 o 691 0.37 Yes Yes
2005BG14 O C 2007-06-08.23303 1.000E-05 16:17:17.780 1.500E-01 0.500 F 0.115 -0.117 +01° 59' 39.90" 1.000E-01 0.500 F 0.247 -0.166 19.5 V 0.70 -0.28 o 691 0.41 Yes Yes
2005BG14 O C 2007-06-08.25066 1.000E-05 16:17:14.530 1.500E-01 0.500 F 0.115 -0.398 +01° 59' 38.40" 1.000E-01 0.500 F 0.247 -0.037 19.6 V 0.70 -0.18 o 691 0.80 Yes Yes
2005BG14 O C 2007-06-08.26829 1.000E-05 16:17:11.220 1.500E-01 0.500 F 0.115 -1.539 +01° 59' 35.60" 1.000E-01 0.500 F 0.247 -1.193 19.2 V 0.70 -0.58 o 691 3.87 No Yes
2007LS O C 2007-06-08.29124 1.000E-05 15:37:58.330 1.500E-01 0.500 F 0.128 -0.477 -11° 50' 28.80" 1.000E-01 0.500 F 0.056 -0.012 21.0 V 0.70 -0.28 o 691 0.96 Yes Yes
2007LS O C 2007-06-08.30890 1.000E-05 15:37:56.880 1.500E-01 0.500 F 0.128 -0.114 -11° 50' 22.30" 1.000E-01 0.500 F 0.056 0.098 20.8 V 0.70 -0.48 o 691 0.30 Yes Yes

[1-200] [201-400] [401-600] [601-800] [801-1000] [1001-1200] [1201-1400] [1401-1600] [1601-1800] [1801-2000] [2001-2200] [2201-2400] [2401-2600] [2601-2800] [2801-3000] [3001-3200] [3201-3400] [3401-3600] [3601-3800] [3801-4000] [4001-4200] [4201-4400] [4401-4600] [4601-4800] [4801-5000] [5001-5200] [5201-5400] [5401-5600] [5601-5800] [5801-6000] [6001-6200] [6201-6400] [6401-6600] [6601-6800] [6801-7000] [7001-7200] [7201-7400] [7401-7600] [7601-7800] [7801-8000] [8001-8200] [8201-8400] [8401-8600] [8601-8800] [8801-9000] [9001-9200] [9201-9400] [9401-9600] [9601-9800] [9801-10000] [10001-10200] [10201-10400] [10401-10600] [10601-10800] [10801-11000] [11001-11200] [11201-11400] [11401-11600] [11601-11800] [11801-12000] [12001-12200] [12201-12400] [12401-12600] [12601-12800] [12801-13000] [13001-13200] [13201-13400] [13401-13600] [13601-13800] [13801-14000] [14001-14200] [14201-14400] [14401-14600] [14601-14800] [14801-15000] [15001-15200] [15201-15400] [15401-15600] [15601-15800] [15801-16000] [16001-16200] [16201-16400] [16401-16600] [16601-16800] [16801-17000] [17001-17200] [17201-17400] [17401-17600] [17601-17800] [17801-18000] [18001-18200] [18201-18400] [18401-18600] [18601-18800] [18801-19000] [19001-19200] [19201-19400] [19401-19600] [19601-19800] [19801-20000] [20001-20200] [20201-20400] [20401-20600] [20601-20800] [20801-21000] [21001-21200] [21201-21400] [21401-21600] [21601-21800] [21801-22000] [22001-22200] [22201-22400] [22401-22600] [22601-22800] [22801-23000] [23001-23200] [23201-23400] [23401-23600] [23601-23800] [23801-24000] [24001-24200] [24201-24400] [24401-24600] [24601-24800] [24801-25000] [25001-25200] [25201-25400] [25401-25600] [25601-25800] [25801-26000] [26001-26200] [26201-26400] [26401-26600] [26601-26800] [26801-27000] [27001-27200] [27201-27400] [27401-27600] [27601-27800] [27801-28000] [28001-28200] [28201-28400] [28401-28600] [28601-28800] [28801-29000] [29001-29200] [29201-29400] [29401-29600] [29601-29800] [29801-30000] [30001-30200] [30201-30400] [30401-30600] [30601-30800] [30801-31000] [31001-31200] [31201-31400] [31401-31600] [31601-31800] [31801-32000] [32001-32200] [32201-32400] [32401-32600] [32601-32800] [32801-33000] [33001-33200] [33201-33400] [33401-33600] [33601-33800] [33801-34000] [34001-34200] [34201-34400] [34401-34600] [34601-34800] [34801-35000] [35001-35200] [35201-35400] [35401-35600] [35601-35800] [35801-36000] [36001-36200] [36201-36400] [36401-36600] [36601-36800] [36801-37000] [37001-37200] [37201-37400] [37401-37600] [37601-37800] [37801-38000] [38001-38200] [38201-38400] [38401-38600] [38601-38800] [38801-39000] [39001-39200] [39201-39400] [39401-39600] [39601-39800] [39801-40000] [40001-40200] [40201-40400] [40401-40600] [40601-40800] [40801-41000] [41001-41200] [41201-41400] [41401-41600] [41601-41800] [41801-42000] [42001-42200] [42201-42400] [42401-42600] [42601-42800] [42801-43000] [43001-43200] [43201-43400] [43401-43600] [43601-43800] [43801-44000] [44001-44200] [44201-44400] [44401-44600] [44601-44800] [44801-45000] [45001-45200] [45201-45400] [45401-45600] [45601-45800] [45801-46000] [46001-46200] [46201-46400] [46401-46600] [46601-46800] [46801-47000] [47001-47200] [47201-47400] [47401-47600] [47601-47800] [47801-48000] [48001-48200] [48201-48400] [48401-48600] [48601-48800] [48801-49000] [49001-49200] [49201-49400] [49401-49600] [49601-49800] [49801-50000] [50001-50200] [50201-50388]